sensor_id;sensor_type;location;lat;lon;timestamp;pressure;altitude;pressure_sealevel;temperature;humidity
31761;BME280;18335;51.486;7.562;2022-08-24T00:00:58;100325.69;;;21.67;100.00
31761;BME280;18335;51.486;7.562;2022-08-24T00:03:25;100331.34;;;21.60;100.00
31761;BME280;18335;51.486;7.562;2022-08-24T00:05:52;100336.13;;;21.71;100.00
31761;BME280;18335;51.486;7.562;2022-08-24T00:08:19;100321.75;;;21.74;100.00
31761;BME280;18335;51.486;7.562;2022-08-24T00:10:46;100333.34;;;21.71;100.00
31761;BME280;18335;51.486;7.562;2022-08-24T00:13:13;100337.19;;;21.70;100.00
31761;BME280;18335;51.486;7.562;2022-08-24T00:15:40;100335.66;;;21.74;100.00
31761;BME280;18335;51.486;7.562;2022-08-24T00:18:08;100340.22;;;21.80;100.00
31761;BME280;18335;51.486;7.562;2022-08-24T00:20:35;100332.75;;;21.81;100.00
31761;BME280;18335;51.486;7.562;2022-08-24T00:23:02;100336.97;;;21.83;100.00
31761;BME280;18335;51.486;7.562;2022-08-24T00:25:29;100323.22;;;21.77;100.00
31761;BME280;18335;51.486;7.562;2022-08-24T00:27:56;100333.22;;;21.78;100.00
31761;BME280;18335;51.486;7.562;2022-08-24T00:30:24;100331.81;;;21.87;100.00
31761;BME280;18335;51.486;7.562;2022-08-24T00:32:51;100326.56;;;21.97;100.00
31761;BME280;18335;51.486;7.562;2022-08-24T00:35:21;100320.53;;;22.00;100.00
31761;BME280;18335;51.486;7.562;2022-08-24T00:37:49;100327.88;;;21.94;100.00
31761;BME280;18335;51.486;7.562;2022-08-24T00:40:23;100326.84;;;21.77;100.00
31761;BME280;18335;51.486;7.562;2022-08-24T00:42:52;100324.66;;;21.79;100.00
31761;BME280;18335;51.486;7.562;2022-08-24T00:45:20;100328.09;;;21.63;100.00
31761;BME280;18335;51.486;7.562;2022-08-24T00:47:52;100328.97;;;21.45;100.00
31761;BME280;18335;51.486;7.562;2022-08-24T00:50:26;100332.78;;;21.33;100.00
31761;BME280;18335;51.486;7.562;2022-08-24T00:52:57;100323.25;;;21.29;100.00
31761;BME280;18335;51.486;7.562;2022-08-24T00:55:28;100331.28;;;21.48;100.00
31761;BME280;18335;51.486;7.562;2022-08-24T00:58:00;100328.97;;;21.45;100.00
31761;BME280;18335;51.486;7.562;2022-08-24T01:00:29;100329.25;;;21.26;100.00
31761;BME280;18335;51.486;7.562;2022-08-24T01:03:00;100328.28;;;21.20;100.00
31761;BME280;18335;51.486;7.562;2022-08-24T01:05:31;100326.47;;;21.26;100.00
31761;BME280;18335;51.486;7.562;2022-08-24T01:07:58;100335.75;;;21.20;100.00
31761;BME280;18335;51.486;7.562;2022-08-24T01:10:28;100333.88;;;21.14;100.00
31761;BME280;18335;51.486;7.562;2022-08-24T01:12:58;100336.31;;;21.04;100.00
31761;BME280;18335;51.486;7.562;2022-08-24T01:15:28;100338.94;;;20.98;100.00
31761;BME280;18335;51.486;7.562;2022-08-24T01:17:55;100332.94;;;21.02;100.00
31761;BME280;18335;51.486;7.562;2022-08-24T01:20:37;100339.94;;;20.86;100.00
31761;BME280;18335;51.486;7.562;2022-08-24T01:23:10;100342.78;;;20.97;100.00
31761;BME280;18335;51.486;7.562;2022-08-24T01:25:42;100336.09;;;21.05;100.00
31761;BME280;18335;51.486;7.562;2022-08-24T01:28:13;100335.00;;;20.88;100.00
31761;BME280;18335;51.486;7.562;2022-08-24T01:30:41;100333.53;;;20.85;100.00
31761;BME280;18335;51.486;7.562;2022-08-24T01:33:09;100326.59;;;20.76;100.00
31761;BME280;18335;51.486;7.562;2022-08-24T01:35:37;100333.06;;;20.70;100.00
31761;BME280;18335;51.486;7.562;2022-08-24T01:38:09;100328.28;;;20.59;100.00
31761;BME280;18335;51.486;7.562;2022-08-24T01:40:39;100331.91;;;20.60;100.00
31761;BME280;18335;51.486;7.562;2022-08-24T01:43:10;100346.66;;;20.54;100.00
31761;BME280;18335;51.486;7.562;2022-08-24T01:45:37;100337.56;;;20.47;100.00
31761;BME280;18335;51.486;7.562;2022-08-24T01:48:06;100344.19;;;20.46;100.00
31761;BME280;18335;51.486;7.562;2022-08-24T01:50:33;100338.25;;;20.42;100.00
31761;BME280;18335;51.486;7.562;2022-08-24T01:53:03;100342.50;;;20.45;100.00
31761;BME280;18335;51.486;7.562;2022-08-24T01:55:31;100343.03;;;20.53;100.00
31761;BME280;18335;51.486;7.562;2022-08-24T01:57:58;100338.56;;;20.52;100.00
31761;BME280;18335;51.486;7.562;2022-08-24T02:00:29;100336.69;;;20.28;100.00
31761;BME280;18335;51.486;7.562;2022-08-24T02:02:56;100335.25;;;20.43;100.00
31761;BME280;18335;51.486;7.562;2022-08-24T02:05:24;100338.81;;;20.26;100.00
31761;BME280;18335;51.486;7.562;2022-08-24T02:07:51;100342.50;;;20.13;100.00
31761;BME280;18335;51.486;7.562;2022-08-24T02:10:20;100345.34;;;20.07;100.00
31761;BME280;18335;51.486;7.562;2022-08-24T02:12:49;100341.03;;;20.11;100.00
31761;BME280;18335;51.486;7.562;2022-08-24T02:15:25;100333.69;;;20.23;100.00
31761;BME280;18335;51.486;7.562;2022-08-24T02:17:54;100341.28;;;20.34;100.00
31761;BME280;18335;51.486;7.562;2022-08-24T02:20:22;100333.38;;;20.37;100.00
31761;BME280;18335;51.486;7.562;2022-08-24T02:22:52;100339.59;;;20.02;100.00
31761;BME280;18335;51.486;7.562;2022-08-24T02:25:20;100342.38;;;20.02;100.00
31761;BME280;18335;51.486;7.562;2022-08-24T02:27:47;100338.63;;;19.89;100.00
31761;BME280;18335;51.486;7.562;2022-08-24T02:30:14;100340.78;;;19.87;100.00
31761;BME280;18335;51.486;7.562;2022-08-24T02:32:41;100346.25;;;20.01;100.00
31761;BME280;18335;51.486;7.562;2022-08-24T02:35:10;100353.25;;;20.03;100.00
31761;BME280;18335;51.486;7.562;2022-08-24T02:37:37;100351.34;;;20.04;100.00
31761;BME280;18335;51.486;7.562;2022-08-24T02:40:05;100354.88;;;19.86;100.00
31761;BME280;18335;51.486;7.562;2022-08-24T02:42:33;100348.28;;;19.80;100.00
31761;BME280;18335;51.486;7.562;2022-08-24T02:45:00;100344.81;;;19.92;100.00
31761;BME280;18335;51.486;7.562;2022-08-24T02:47:28;100344.47;;;19.75;100.00
31761;BME280;18335;51.486;7.562;2022-08-24T02:49:55;100340.84;;;19.74;100.00
31761;BME280;18335;51.486;7.562;2022-08-24T02:52:23;100341.09;;;19.73;100.00
31761;BME280;18335;51.486;7.562;2022-08-24T02:54:50;100345.59;;;19.67;100.00
31761;BME280;18335;51.486;7.562;2022-08-24T02:57:17;100353.97;;;19.92;100.00
31761;BME280;18335;51.486;7.562;2022-08-24T02:59:44;100355.66;;;19.93;100.00
31761;BME280;18335;51.486;7.562;2022-08-24T03:02:10;100346.38;;;19.74;100.00
31761;BME280;18335;51.486;7.562;2022-08-24T03:04:37;100347.72;;;19.65;100.00
31761;BME280;18335;51.486;7.562;2022-08-24T03:07:04;100353.69;;;19.62;100.00
31761;BME280;18335;51.486;7.562;2022-08-24T03:09:32;100349.38;;;19.79;100.00
31761;BME280;18335;51.486;7.562;2022-08-24T03:11:59;100352.34;;;19.78;100.00
31761;BME280;18335;51.486;7.562;2022-08-24T03:14:26;100348.53;;;19.72;100.00
31761;BME280;18335;51.486;7.562;2022-08-24T03:16:53;100354.38;;;19.58;100.00
31761;BME280;18335;51.486;7.562;2022-08-24T03:19:20;100354.69;;;19.43;100.00
31761;BME280;18335;51.486;7.562;2022-08-24T03:21:49;100354.06;;;19.41;100.00
31761;BME280;18335;51.486;7.562;2022-08-24T03:24:18;100351.47;;;19.46;100.00
31761;BME280;18335;51.486;7.562;2022-08-24T03:26:46;100352.97;;;19.42;100.00
31761;BME280;18335;51.486;7.562;2022-08-24T03:29:12;100345.75;;;19.41;100.00
31761;BME280;18335;51.486;7.562;2022-08-24T03:31:40;100339.53;;;19.46;100.00
31761;BME280;18335;51.486;7.562;2022-08-24T03:34:06;100345.66;;;19.54;100.00
31761;BME280;18335;51.486;7.562;2022-08-24T03:36:34;100340.66;;;19.31;100.00
31761;BME280;18335;51.486;7.562;2022-08-24T03:39:01;100342.34;;;19.39;100.00
31761;BME280;18335;51.486;7.562;2022-08-24T03:41:29;100349.13;;;19.50;100.00
31761;BME280;18335;51.486;7.562;2022-08-24T03:43:57;100343.19;;;19.40;100.00
31761;BME280;18335;51.486;7.562;2022-08-24T03:46:27;100349.16;;;19.30;100.00
31761;BME280;18335;51.486;7.562;2022-08-24T03:48:56;100344.03;;;19.40;100.00
31761;BME280;18335;51.486;7.562;2022-08-24T03:51:25;100345.09;;;19.32;100.00
31761;BME280;18335;51.486;7.562;2022-08-24T03:53:55;100337.66;;;19.33;100.00
31761;BME280;18335;51.486;7.562;2022-08-24T03:56:25;100344.88;;;19.34;100.00
31761;BME280;18335;51.486;7.562;2022-08-24T03:58:53;100350.28;;;19.16;100.00
31761;BME280;18335;51.486;7.562;2022-08-24T04:01:22;100341.31;;;19.20;100.00
31761;BME280;18335;51.486;7.562;2022-08-24T04:03:49;100359.47;;;19.10;100.00
31761;BME280;18335;51.486;7.562;2022-08-24T04:06:20;100358.19;;;19.06;100.00
31761;BME280;18335;51.486;7.562;2022-08-24T04:08:47;100348.81;;;19.07;100.00
31761;BME280;18335;51.486;7.562;2022-08-24T04:11:16;100351.19;;;18.97;100.00
31761;BME280;18335;51.486;7.562;2022-08-24T04:13:44;100350.53;;;19.14;100.00
31761;BME280;18335;51.486;7.562;2022-08-24T04:16:14;100353.09;;;19.03;100.00
31761;BME280;18335;51.486;7.562;2022-08-24T04:18:43;100363.28;;;19.09;100.00
31761;BME280;18335;51.486;7.562;2022-08-24T04:21:15;100353.94;;;19.10;100.00
31761;BME280;18335;51.486;7.562;2022-08-24T04:23:42;100353.94;;;19.10;100.00
31761;BME280;18335;51.486;7.562;2022-08-24T04:26:09;100368.34;;;19.25;100.00
31761;BME280;18335;51.486;7.562;2022-08-24T04:28:36;100355.13;;;19.27;100.00
31761;BME280;18335;51.486;7.562;2022-08-24T04:31:04;100355.53;;;19.30;100.00
31761;BME280;18335;51.486;7.562;2022-08-24T04:33:38;100363.88;;;19.24;100.00
31761;BME280;18335;51.486;7.562;2022-08-24T04:36:08;100357.75;;;19.09;100.00
31761;BME280;18335;51.486;7.562;2022-08-24T04:38:40;100361.16;;;19.11;100.00
31761;BME280;18335;51.486;7.562;2022-08-24T04:41:33;100357.81;;;18.83;100.00
31761;BME280;18335;51.486;7.562;2022-08-24T04:44:00;100359.69;;;19.02;100.00
31761;BME280;18335;51.486;7.562;2022-08-24T04:46:27;100359.03;;;19.13;100.00
31761;BME280;18335;51.486;7.562;2022-08-24T04:48:55;100371.81;;;19.01;100.00
31761;BME280;18335;51.486;7.562;2022-08-24T04:51:23;100361.78;;;19.13;100.00
31761;BME280;18335;51.486;7.562;2022-08-24T04:53:50;100363.50;;;19.14;100.00
31761;BME280;18335;51.486;7.562;2022-08-24T04:56:18;100367.56;;;19.11;100.00
31761;BME280;18335;51.486;7.562;2022-08-24T04:58:47;100369.66;;;19.16;100.00
31761;BME280;18335;51.486;7.562;2022-08-24T05:01:18;100379.22;;;19.20;100.00
31761;BME280;18335;51.486;7.562;2022-08-24T05:03:46;100373.03;;;19.18;100.00
31761;BME280;18335;51.486;7.562;2022-08-24T05:06:15;100376.06;;;19.10;100.00
31761;BME280;18335;51.486;7.562;2022-08-24T05:08:44;100372.25;;;19.04;100.00
31761;BME280;18335;51.486;7.562;2022-08-24T05:11:13;100379.00;;;19.15;100.00
31761;BME280;18335;51.486;7.562;2022-08-24T05:16:37;100387.34;;;19.08;100.00
31761;BME280;18335;51.486;7.562;2022-08-24T05:19:04;100383.63;;;19.34;100.00
31761;BME280;18335;51.486;7.562;2022-08-24T05:21:32;100388.72;;;19.37;100.00
31761;BME280;18335;51.486;7.562;2022-08-24T05:24:00;100383.53;;;19.60;100.00
31761;BME280;18335;51.486;7.562;2022-08-24T05:26:30;100387.28;;;19.79;100.00
31761;BME280;18335;51.486;7.562;2022-08-24T05:29:00;100386.03;;;19.68;100.00
31761;BME280;18335;51.486;7.562;2022-08-24T05:31:36;100383.47;;;20.05;100.00
31761;BME280;18335;51.486;7.562;2022-08-24T05:34:07;100388.97;;;20.11;100.00
31761;BME280;18335;51.486;7.562;2022-08-24T05:36:37;100390.81;;;20.24;100.00
31761;BME280;18335;51.486;7.562;2022-08-24T05:39:09;100400.13;;;20.36;100.00
31761;BME280;18335;51.486;7.562;2022-08-24T05:41:38;100396.63;;;20.47;100.00
31761;BME280;18335;51.486;7.562;2022-08-24T05:44:13;100401.06;;;20.73;100.00
31761;BME280;18335;51.486;7.562;2022-08-24T05:46:41;100403.50;;;20.87;100.00
31761;BME280;18335;51.486;7.562;2022-08-24T05:49:09;100391.03;;;20.96;100.00
31761;BME280;18335;51.486;7.562;2022-08-24T05:51:37;100393.69;;;21.10;100.00
31761;BME280;18335;51.486;7.562;2022-08-24T05:54:09;100393.56;;;21.23;100.00
31761;BME280;18335;51.486;7.562;2022-08-24T05:56:49;100399.25;;;21.28;100.00
31761;BME280;18335;51.486;7.562;2022-08-24T05:59:16;100398.91;;;21.54;100.00
31761;BME280;18335;51.486;7.562;2022-08-24T06:01:45;100401.28;;;21.69;100.00
31761;BME280;18335;51.486;7.562;2022-08-24T06:04:12;100403.66;;;21.83;100.00
31761;BME280;18335;51.486;7.562;2022-08-24T06:06:39;100402.19;;;21.99;100.00
31761;BME280;18335;51.486;7.562;2022-08-24T06:09:10;100406.88;;;22.28;100.00
31761;BME280;18335;51.486;7.562;2022-08-24T06:11:39;100404.63;;;22.37;100.00
31761;BME280;18335;51.486;7.562;2022-08-24T06:14:08;100411.66;;;22.51;100.00
31761;BME280;18335;51.486;7.562;2022-08-24T06:16:44;100405.75;;;22.71;100.00
31761;BME280;18335;51.486;7.562;2022-08-24T06:19:12;100412.66;;;22.91;100.00
31761;BME280;18335;51.486;7.562;2022-08-24T06:21:41;100410.50;;;23.05;100.00
31761;BME280;18335;51.486;7.562;2022-08-24T06:24:08;100410.13;;;23.25;100.00
31761;BME280;18335;51.486;7.562;2022-08-24T06:26:36;100417.38;;;23.26;100.00
31761;BME280;18335;51.486;7.562;2022-08-24T06:29:35;100416.41;;;23.43;100.00
31761;BME280;18335;51.486;7.562;2022-08-24T06:32:23;100417.59;;;23.36;100.00
31761;BME280;18335;51.486;7.562;2022-08-24T06:34:50;100416.06;;;23.40;100.00
31761;BME280;18335;51.486;7.562;2022-08-24T06:37:20;100417.28;;;23.44;100.00
31761;BME280;18335;51.486;7.562;2022-08-24T06:39:51;100423.59;;;23.79;100.00
31761;BME280;18335;51.486;7.562;2022-08-24T06:42:19;100420.53;;;23.92;100.00
31761;BME280;18335;51.486;7.562;2022-08-24T06:44:48;100417.16;;;24.18;98.11
31761;BME280;18335;51.486;7.562;2022-08-24T06:47:20;100424.75;;;24.23;100.00
31761;BME280;18335;51.486;7.562;2022-08-24T06:49:52;100420.59;;;24.54;97.59
31761;BME280;18335;51.486;7.562;2022-08-24T06:52:19;100430.31;;;24.68;97.11
31761;BME280;18335;51.486;7.562;2022-08-24T06:54:46;100429.16;;;24.64;95.84
31761;BME280;18335;51.486;7.562;2022-08-24T06:57:13;100429.31;;;24.57;93.05
31761;BME280;18335;51.486;7.562;2022-08-24T06:59:41;100428.72;;;24.89;92.27
31761;BME280;18335;51.486;7.562;2022-08-24T07:02:09;100426.59;;;24.79;91.29
31761;BME280;18335;51.486;7.562;2022-08-24T07:04:40;100430.06;;;25.19;90.50
31761;BME280;18335;51.486;7.562;2022-08-24T07:07:26;100432.97;;;25.46;89.74
31761;BME280;18335;51.486;7.562;2022-08-24T07:09:53;100424.25;;;25.59;88.56
31761;BME280;18335;51.486;7.562;2022-08-24T07:12:20;100431.88;;;25.69;87.01
31761;BME280;18335;51.486;7.562;2022-08-24T07:14:50;100432.50;;;25.71;81.50
31761;BME280;18335;51.486;7.562;2022-08-24T07:17:17;100440.22;;;25.85;83.14
31761;BME280;18335;51.486;7.562;2022-08-24T07:19:46;100443.72;;;25.76;85.41
31761;BME280;18335;51.486;7.562;2022-08-24T07:22:22;100444.16;;;25.90;85.51
31761;BME280;18335;51.486;7.562;2022-08-24T07:24:49;100442.13;;;25.80;76.57
31761;BME280;18335;51.486;7.562;2022-08-24T07:27:16;100445.16;;;25.78;74.41
31761;BME280;18335;51.486;7.562;2022-08-24T07:29:43;100448.09;;;25.89;74.87
31761;BME280;18335;51.486;7.562;2022-08-24T07:32:12;100442.78;;;26.14;74.99
31761;BME280;18335;51.486;7.562;2022-08-24T07:34:41;100430.84;;;26.18;75.40
31761;BME280;18335;51.486;7.562;2022-08-24T07:37:08;100443.88;;;26.34;76.96
31761;BME280;18335;51.486;7.562;2022-08-24T07:39:38;100447.84;;;26.38;74.44
31761;BME280;18335;51.486;7.562;2022-08-24T07:42:05;100442.34;;;26.49;72.09
31761;BME280;18335;51.486;7.562;2022-08-24T07:44:32;100444.56;;;26.47;72.55
31761;BME280;18335;51.486;7.562;2022-08-24T07:47:00;100449.41;;;26.56;75.21
31761;BME280;18335;51.486;7.562;2022-08-24T07:49:28;100440.53;;;26.37;74.29
31761;BME280;18335;51.486;7.562;2022-08-24T07:51:55;100452.72;;;26.48;71.61
31761;BME280;18335;51.486;7.562;2022-08-24T07:54:22;100444.47;;;26.63;72.32
31761;BME280;18335;51.486;7.562;2022-08-24T07:56:50;100449.97;;;26.58;72.46
31761;BME280;18335;51.486;7.562;2022-08-24T07:59:17;100444.25;;;26.70;71.02
31761;BME280;18335;51.486;7.562;2022-08-24T08:01:44;100443.25;;;26.81;70.07
31761;BME280;18335;51.486;7.562;2022-08-24T08:04:11;100447.56;;;26.67;71.13
31761;BME280;18335;51.486;7.562;2022-08-24T08:06:41;100448.88;;;26.86;70.13
31761;BME280;18335;51.486;7.562;2022-08-24T08:09:08;100450.81;;;27.17;70.43
31761;BME280;18335;51.486;7.562;2022-08-24T08:11:35;100451.41;;;27.24;69.86
31761;BME280;18335;51.486;7.562;2022-08-24T08:14:02;100454.56;;;26.96;71.23
31761;BME280;18335;51.486;7.562;2022-08-24T08:16:29;100455.47;;;27.07;70.52
31761;BME280;18335;51.486;7.562;2022-08-24T08:18:56;100463.00;;;27.01;67.80
31761;BME280;18335;51.486;7.562;2022-08-24T08:21:22;100456.94;;;27.14;67.67
31761;BME280;18335;51.486;7.562;2022-08-24T08:24:09;100462.25;;;27.11;68.49
31761;BME280;18335;51.486;7.562;2022-08-24T08:26:47;100461.09;;;27.43;68.78
31761;BME280;18335;51.486;7.562;2022-08-24T08:29:22;100458.94;;;27.56;66.72
31761;BME280;18335;51.486;7.562;2022-08-24T08:31:50;100468.50;;;27.60;67.76
31761;BME280;18335;51.486;7.562;2022-08-24T08:34:19;100461.50;;;27.67;66.09
31761;BME280;18335;51.486;7.562;2022-08-24T08:36:46;100456.75;;;27.68;64.03
31761;BME280;18335;51.486;7.562;2022-08-24T08:39:19;100464.63;;;27.71;65.09
31761;BME280;18335;51.486;7.562;2022-08-24T08:42:18;100470.44;;;27.59;67.18
31761;BME280;18335;51.486;7.562;2022-08-24T08:44:57;100466.25;;;27.57;65.72
31761;BME280;18335;51.486;7.562;2022-08-24T08:47:39;100460.00;;;28.01;64.23
31761;BME280;18335;51.486;7.562;2022-08-24T08:50:17;100466.16;;;28.03;63.79
31761;BME280;18335;51.486;7.562;2022-08-24T08:56:01;100460.69;;;28.34;63.40
31761;BME280;18335;51.486;7.562;2022-08-24T08:58:45;100449.16;;;28.25;66.17
31761;BME280;18335;51.486;7.562;2022-08-24T09:01:24;100458.09;;;28.12;66.94
31761;BME280;18335;51.486;7.562;2022-08-24T09:04:10;100450.56;;;28.38;63.73
31761;BME280;18335;51.486;7.562;2022-08-24T09:07:14;100450.31;;;28.34;65.79
31761;BME280;18335;51.486;7.562;2022-08-24T09:10:02;100450.31;;;28.44;61.91
31761;BME280;18335;51.486;7.562;2022-08-24T09:12:50;100448.69;;;28.74;60.41
31761;BME280;18335;51.486;7.562;2022-08-24T09:15:38;100449.00;;;29.02;60.77
31761;BME280;18335;51.486;7.562;2022-08-24T09:18:20;100449.53;;;28.74;62.71
31761;BME280;18335;51.486;7.562;2022-08-24T09:21:10;100446.44;;;28.86;60.11
31761;BME280;18335;51.486;7.562;2022-08-24T09:23:48;100443.06;;;29.14;59.68
31761;BME280;18335;51.486;7.562;2022-08-24T09:26:24;100437.47;;;28.94;61.38
31761;BME280;18335;51.486;7.562;2022-08-24T09:29:05;100444.19;;;28.68;61.09
31761;BME280;18335;51.486;7.562;2022-08-24T09:31:48;100438.59;;;29.08;61.31
31761;BME280;18335;51.486;7.562;2022-08-24T09:34:31;100439.72;;;29.12;58.84
31761;BME280;18335;51.486;7.562;2022-08-24T09:37:03;100441.66;;;29.06;60.48
31761;BME280;18335;51.486;7.562;2022-08-24T09:39:50;100436.31;;;29.20;59.86
31761;BME280;18335;51.486;7.562;2022-08-24T09:43:05;100438.28;;;29.35;59.17
31761;BME280;18335;51.486;7.562;2022-08-24T09:45:58;100437.44;;;29.44;56.99
31761;BME280;18335;51.486;7.562;2022-08-24T09:48:56;100439.72;;;29.12;59.46
31761;BME280;18335;51.486;7.562;2022-08-24T09:52:00;100436.53;;;29.54;57.63
31761;BME280;18335;51.486;7.562;2022-08-24T09:54:54;100440.75;;;29.61;58.53
31761;BME280;18335;51.486;7.562;2022-08-24T09:57:35;100437.41;;;29.39;59.20
31761;BME280;18335;51.486;7.562;2022-08-24T10:00:11;100442.16;;;29.59;60.43
31761;BME280;18335;51.486;7.562;2022-08-24T10:02:50;100434.88;;;29.53;60.06
31761;BME280;18335;51.486;7.562;2022-08-24T10:05:41;100438.53;;;29.48;57.57
31761;BME280;18335;51.486;7.562;2022-08-24T10:08:20;100444.16;;;29.53;58.32
31761;BME280;18335;51.486;7.562;2022-08-24T10:10:54;100436.84;;;29.52;58.71
31761;BME280;18335;51.486;7.562;2022-08-24T10:13:30;100418.19;;;29.87;56.38
31761;BME280;18335;51.486;7.562;2022-08-24T10:16:14;100423.19;;;30.00;57.90
31761;BME280;18335;51.486;7.562;2022-08-24T10:18:55;100418.00;;;30.17;54.56
31761;BME280;18335;51.486;7.562;2022-08-24T10:21:34;100418.03;;;30.12;56.62
31761;BME280;18335;51.486;7.562;2022-08-24T10:24:21;100414.97;;;30.13;56.09
31761;BME280;18335;51.486;7.562;2022-08-24T10:27:15;100407.47;;;30.43;56.53
31761;BME280;18335;51.486;7.562;2022-08-24T10:30:08;100402.75;;;30.28;54.42
31761;BME280;18335;51.486;7.562;2022-08-24T10:32:52;100410.34;;;29.84;54.31
31761;BME280;18335;51.486;7.562;2022-08-24T10:35:26;100408.56;;;29.93;55.27
31761;BME280;18335;51.486;7.562;2022-08-24T10:38:11;100403.28;;;30.40;54.08
31761;BME280;18335;51.486;7.562;2022-08-24T10:41:14;100406.13;;;30.69;54.29
31761;BME280;18335;51.486;7.562;2022-08-24T10:44:07;100412.69;;;30.15;56.39
31761;BME280;18335;51.486;7.562;2022-08-24T10:46:47;100414.41;;;30.06;56.57
31761;BME280;18335;51.486;7.562;2022-08-24T10:49:50;100405.94;;;30.16;55.96
31761;BME280;18335;51.486;7.562;2022-08-24T10:52:47;100406.25;;;30.05;55.20
31761;BME280;18335;51.486;7.562;2022-08-24T10:55:21;100400.44;;;30.35;53.63
31761;BME280;18335;51.486;7.562;2022-08-24T10:57:58;100395.00;;;30.54;53.42
31761;BME280;18335;51.486;7.562;2022-08-24T11:00:30;100392.38;;;30.62;52.81
31761;BME280;18335;51.486;7.562;2022-08-24T11:03:09;100388.81;;;30.52;51.96
31761;BME280;18335;51.486;7.562;2022-08-24T11:05:41;100391.44;;;30.38;53.85
31761;BME280;18335;51.486;7.562;2022-08-24T11:08:24;100395.50;;;30.61;52.98
31761;BME280;18335;51.486;7.562;2022-08-24T11:11:06;100388.03;;;30.46;51.67
31761;BME280;18335;51.486;7.562;2022-08-24T11:13:34;100387.19;;;30.46;51.58
31761;BME280;18335;51.486;7.562;2022-08-24T11:16:03;100387.56;;;31.02;50.85
31761;BME280;18335;51.486;7.562;2022-08-24T11:18:46;100391.56;;;30.96;50.12
31761;BME280;18335;51.486;7.562;2022-08-24T11:21:24;100384.41;;;30.75;50.88
31761;BME280;18335;51.486;7.562;2022-08-24T11:24:03;100384.97;;;30.71;52.56
31761;BME280;18335;51.486;7.562;2022-08-24T11:26:30;100383.09;;;30.96;49.22
31761;BME280;18335;51.486;7.562;2022-08-24T11:29:03;100381.84;;;31.07;48.79
31761;BME280;18335;51.486;7.562;2022-08-24T11:31:32;100384.41;;;31.08;51.99
31761;BME280;18335;51.486;7.562;2022-08-24T11:34:02;100376.81;;;31.33;49.61
31761;BME280;18335;51.486;7.562;2022-08-24T11:36:33;100377.25;;;31.16;50.94
31761;BME280;18335;51.486;7.562;2022-08-24T11:39:16;100380.31;;;31.19;49.11
31761;BME280;18335;51.486;7.562;2022-08-24T11:41:53;100376.72;;;31.14;50.61
31761;BME280;18335;51.486;7.562;2022-08-24T11:44:36;100377.97;;;31.03;51.48
31761;BME280;18335;51.486;7.562;2022-08-24T11:47:22;100367.72;;;31.12;48.90
31761;BME280;18335;51.486;7.562;2022-08-24T11:50:00;100380.28;;;30.96;51.60
31761;BME280;18335;51.486;7.562;2022-08-24T11:52:38;100377.56;;;31.14;48.22
31761;BME280;18335;51.486;7.562;2022-08-24T11:55:16;100377.88;;;30.79;48.93
31761;BME280;18335;51.486;7.562;2022-08-24T11:57:47;100381.59;;;31.03;49.79
31761;BME280;18335;51.486;7.562;2022-08-24T12:00:20;100373.13;;;31.32;49.27
31761;BME280;18335;51.486;7.562;2022-08-24T12:02:52;100371.25;;;31.51;49.41
31761;BME280;18335;51.486;7.562;2022-08-24T12:05:27;100371.19;;;31.04;50.52
31761;BME280;18335;51.486;7.562;2022-08-24T12:08:03;100366.59;;;31.37;47.64
31761;BME280;18335;51.486;7.562;2022-08-24T12:10:40;100362.16;;;31.31;48.41
31761;BME280;18335;51.486;7.562;2022-08-24T12:13:14;100364.84;;;31.17;48.58
31761;BME280;18335;51.486;7.562;2022-08-24T12:15:51;100371.53;;;31.26;50.22
31761;BME280;18335;51.486;7.562;2022-08-24T12:18:25;100357.72;;;31.48;47.72
31761;BME280;18335;51.486;7.562;2022-08-24T12:20:54;100355.47;;;31.45;47.91
31761;BME280;18335;51.486;7.562;2022-08-24T12:23:30;100360.53;;;31.24;47.74
31761;BME280;18335;51.486;7.562;2022-08-24T12:26:02;100351.88;;;31.40;49.17
31761;BME280;18335;51.486;7.562;2022-08-24T12:28:34;100361.00;;;31.08;47.85
31761;BME280;18335;51.486;7.562;2022-08-24T12:31:09;100349.97;;;31.35;47.88
31761;BME280;18335;51.486;7.562;2022-08-24T12:33:44;100356.09;;;31.42;46.14
31761;BME280;18335;51.486;7.562;2022-08-24T12:36:20;100357.38;;;31.55;46.74
31761;BME280;18335;51.486;7.562;2022-08-24T12:38:57;100354.13;;;31.66;46.93
31761;BME280;18335;51.486;7.562;2022-08-24T12:41:31;100347.44;;;31.81;44.79
31761;BME280;18335;51.486;7.562;2022-08-24T12:44:05;100337.75;;;32.11;45.33
31761;BME280;18335;51.486;7.562;2022-08-24T12:46:35;100335.81;;;32.06;46.87
31761;BME280;18335;51.486;7.562;2022-08-24T12:49:07;100337.19;;;32.09;50.07
31761;BME280;18335;51.486;7.562;2022-08-24T12:51:48;100344.97;;;31.56;46.63
31761;BME280;18335;51.486;7.562;2022-08-24T12:54:34;100343.16;;;31.65;46.63
31761;BME280;18335;51.486;7.562;2022-08-24T12:57:12;100340.56;;;31.87;47.06
31761;BME280;18335;51.486;7.562;2022-08-24T12:59:44;100351.25;;;31.71;45.85
31761;BME280;18335;51.486;7.562;2022-08-24T13:02:31;100341.78;;;32.05;44.25
31761;BME280;18335;51.486;7.562;2022-08-24T13:05:05;100345.09;;;31.88;43.28
31761;BME280;18335;51.486;7.562;2022-08-24T13:07:39;100331.69;;;31.99;43.71
31761;BME280;18335;51.486;7.562;2022-08-24T13:10:11;100340.56;;;32.11;43.83
31761;BME280;18335;51.486;7.562;2022-08-24T13:12:58;100344.47;;;31.91;44.84
31761;BME280;18335;51.486;7.562;2022-08-24T13:15:58;100341.59;;;32.33;44.33
31761;BME280;18335;51.486;7.562;2022-08-24T13:18:45;100330.50;;;32.56;41.59
31761;BME280;18335;51.486;7.562;2022-08-24T13:21:16;100326.59;;;32.70;44.00